DLH53 LIMC-LEPA
Flight info
| Callsign | DLH53 |
|---|---|
| Flight time | N/A |
| Altitude | 35000 |
| Route | LAGEN DCT ANAKI DCT IXITO DCT PIDAD DCT TALEP DCT RARQU DCT BALEN/N0517F290 UT250 RIXOT |
| Aircraft | A35K/H-SDE2E3GHIJ3J4J5LM1ORWXY/LB1D1 |
Departure
| Time | 2026-04-30 09:40 |
|---|---|
| Airport | Milan Malpensa International Airport (LIMC) |
Arrival
| Time | N/A |
|---|---|
| Airport | Palma de Mallorca Airport (LEPA) |
| Time | Latitude | Longitude | Altitude | Speed | Heading |
|---|---|---|---|---|---|
| 2026-04-30 09:15 | 45.62556 | 8.71740 | 720 ft | 0 kts | 232° |
| 2026-04-30 09:28 | 45.62559 | 8.71745 | 747 ft | 3 kts | 231° |
| 2026-04-30 09:29 | 45.62577 | 8.71773 | 742 ft | 4 kts | 225° |
| 2026-04-30 09:29 | 45.62590 | 8.71798 | 742 ft | 1 kts | 251° |
| 2026-04-30 09:29 | 45.62600 | 8.71827 | 742 ft | 4 kts | 213° |
| 2026-04-30 09:29 | 45.62622 | 8.71838 | 742 ft | 2 kts | 189° |
| 2026-04-30 09:30 | 45.62604 | 8.71843 | 742 ft | 3 kts | 168° |
| 2026-04-30 09:30 | 45.62600 | 8.71844 | 742 ft | 0 kts | 169° |
| 2026-04-30 09:32 | 45.62588 | 8.71847 | 742 ft | 6 kts | 170° |
| 2026-04-30 09:32 | 45.62499 | 8.71870 | 743 ft | 19 kts | 169° |
| 2026-04-30 09:32 | 45.62331 | 8.71918 | 745 ft | 30 kts | 168° |
| 2026-04-30 09:32 | 45.62096 | 8.71986 | 744 ft | 39 kts | 168° |
| 2026-04-30 09:33 | 45.61809 | 8.72063 | 746 ft | 44 kts | 170° |
| 2026-04-30 09:33 | 45.61505 | 8.72146 | 744 ft | 45 kts | 169° |
| 2026-04-30 09:33 | 45.61199 | 8.72230 | 746 ft | 45 kts | 169° |
| 2026-04-30 09:33 | 45.60889 | 8.72316 | 744 ft | 46 kts | 169° |
| 2026-04-30 09:34 | 45.60620 | 8.72492 | 747 ft | 42 kts | 112° |
| 2026-04-30 09:34 | 45.60608 | 8.72887 | 745 ft | 40 kts | 94° |
| 2026-04-30 09:34 | 45.60629 | 8.73265 | 743 ft | 36 kts | 52° |
| 2026-04-30 09:34 | 45.60841 | 8.73399 | 745 ft | 34 kts | 13° |
| 2026-04-30 09:35 | 45.61070 | 8.73361 | 745 ft | 34 kts | 348° |
| 2026-04-30 09:35 | 45.61304 | 8.73294 | 746 ft | 35 kts | 349° |
| 2026-04-30 09:35 | 45.61544 | 8.73224 | 745 ft | 31 kts | 348° |
| 2026-04-30 09:35 | 45.61618 | 8.73271 | 744 ft | 10 kts | 73° |
| 2026-04-30 09:36 | 45.61631 | 8.73388 | 745 ft | 13 kts | 86° |
| 2026-04-30 09:36 | 45.61616 | 8.73465 | 744 ft | 0 kts | 117° |
| 2026-04-30 09:36 | 45.61613 | 8.73472 | 744 ft | 3 kts | 117° |
| 2026-04-30 09:37 | 45.61593 | 8.73530 | 744 ft | 9 kts | 113° |
| 2026-04-30 09:37 | 45.61587 | 8.73579 | 747 ft | 0 kts | 90° |
| 2026-04-30 09:38 | 45.61587 | 8.73597 | 747 ft | 4 kts | 90° |
| 2026-04-30 09:38 | 45.61591 | 8.73660 | 742 ft | 9 kts | 79° |
| 2026-04-30 09:38 | 45.61638 | 8.73724 | 742 ft | 10 kts | 11° |
| 2026-04-30 09:38 | 45.61687 | 8.73717 | 743 ft | 0 kts | 348° |
| 2026-04-30 09:39 | 45.61700 | 8.73713 | 742 ft | 4 kts | 348° |
| 2026-04-30 09:39 | 45.61735 | 8.73703 | 744 ft | 6 kts | 348° |
| 2026-04-30 09:39 | 45.61901 | 8.73660 | 742 ft | 59 kts | 349° |
| 2026-04-30 09:39 | 45.62560 | 8.73480 | 744 ft | 130 kts | 349° |
| 2026-04-30 09:40 | 45.63631 | 8.73156 | 887 ft | 176 kts | 349° |
| 2026-04-30 09:40 | 45.64839 | 8.72623 | 1582 ft | 183 kts | 337° |
| 2026-04-30 09:40 | 45.65852 | 8.71535 | 2510 ft | 188 kts | 321° |
| 2026-04-30 09:40 | 45.66948 | 8.70276 | 3003 ft | 214 kts | 325° |
| 2026-04-30 09:41 | 45.68195 | 8.68941 | 3645 ft | 232 kts | 323° |
| 2026-04-30 09:41 | 45.69454 | 8.67434 | 4352 ft | 238 kts | 321° |
| 2026-04-30 09:41 | 45.70727 | 8.65896 | 5111 ft | 242 kts | 321° |
| 2026-04-30 09:41 | 45.72032 | 8.64345 | 5888 ft | 243 kts | 321° |
| 2026-04-30 09:42 | 45.73155 | 8.62575 | 6799 ft | 242 kts | 298° |
| 2026-04-30 09:42 | 45.73543 | 8.60259 | 7535 ft | 243 kts | 266° |
| 2026-04-30 09:42 | 45.73044 | 8.57977 | 8274 ft | 243 kts | 237° |
| 2026-04-30 09:42 | 45.72008 | 8.56063 | 9031 ft | 244 kts | 229° |
| 2026-04-30 09:43 | 45.70887 | 8.54225 | 9777 ft | 247 kts | 230° |
| 2026-04-30 09:43 | 45.69755 | 8.52359 | 10512 ft | 249 kts | 230° |
| 2026-04-30 09:43 | 45.68525 | 8.50568 | 11079 ft | 257 kts | 220° |
| 2026-04-30 09:43 | 45.66988 | 8.49203 | 11673 ft | 264 kts | 206° |
| 2026-04-30 09:44 | 45.65269 | 8.48223 | 12280 ft | 269 kts | 199° |
| 2026-04-30 09:44 | 45.63457 | 8.47441 | 12883 ft | 275 kts | 196° |
| 2026-04-30 09:44 | 45.61599 | 8.46730 | 13505 ft | 279 kts | 195° |
| 2026-04-30 09:44 | 45.59681 | 8.46006 | 13917 ft | 293 kts | 196° |
| 2026-04-30 09:45 | 45.57655 | 8.45207 | 14166 ft | 312 kts | 197° |
| 2026-04-30 09:45 | 45.55512 | 8.44317 | 14398 ft | 329 kts | 197° |
| 2026-04-30 09:45 | 45.53267 | 8.43346 | 14610 ft | 346 kts | 198° |
| 2026-04-30 09:45 | 45.50917 | 8.42314 | 14851 ft | 361 kts | 198° |
| 2026-04-30 09:46 | 45.48468 | 8.41234 | 15091 ft | 375 kts | 198° |
| 2026-04-30 09:46 | 45.45930 | 8.40114 | 15297 ft | 388 kts | 198° |
| 2026-04-30 09:46 | 45.43313 | 8.38964 | 15537 ft | 399 kts | 198° |
| 2026-04-30 09:46 | 45.40646 | 8.37793 | 15973 ft | 404 kts | 198° |
| 2026-04-30 09:47 | 45.37949 | 8.36613 | 16484 ft | 406 kts | 198° |
| 2026-04-30 09:47 | 45.35274 | 8.35444 | 16963 ft | 410 kts | 197° |
| 2026-04-30 09:47 | 45.32536 | 8.34249 | 17408 ft | 414 kts | 197° |
| 2026-04-30 09:47 | 45.29766 | 8.33041 | 17941 ft | 416 kts | 197° |
| 2026-04-30 09:48 | 45.26991 | 8.31833 | 18465 ft | 419 kts | 198° |
| 2026-04-30 09:48 | 45.24195 | 8.30616 | 18845 ft | 423 kts | 198° |
| 2026-04-30 09:48 | 45.21366 | 8.29386 | 19233 ft | 427 kts | 198° |
| 2026-04-30 09:48 | 45.18523 | 8.28150 | 19699 ft | 428 kts | 198° |
| 2026-04-30 09:49 | 45.15671 | 8.26911 | 20187 ft | 429 kts | 198° |
| 2026-04-30 09:49 | 45.12804 | 8.25668 | 20562 ft | 433 kts | 198° |
| 2026-04-30 09:49 | 45.09915 | 8.24417 | 20945 ft | 436 kts | 198° |
| 2026-04-30 09:49 | 45.07009 | 8.23161 | 21426 ft | 437 kts | 198° |
| 2026-04-30 09:50 | 45.04104 | 8.21906 | 21896 ft | 438 kts | 198° |
| 2026-04-30 09:50 | 45.01179 | 8.20643 | 22273 ft | 441 kts | 198° |
| 2026-04-30 09:50 | 44.98236 | 8.19373 | 22656 ft | 444 kts | 198° |
| 2026-04-30 09:50 | 44.95279 | 8.18099 | 23073 ft | 445 kts | 198° |
| 2026-04-30 09:51 | 44.92307 | 8.16819 | 23467 ft | 448 kts | 198° |
| 2026-04-30 09:51 | 44.89315 | 8.15533 | 23851 ft | 450 kts | 199° |
| 2026-04-30 09:51 | 44.86324 | 8.14252 | 24264 ft | 450 kts | 199° |
| 2026-04-30 09:51 | 44.83327 | 8.12967 | 24601 ft | 452 kts | 199° |
| 2026-04-30 09:52 | 44.80314 | 8.11675 | 24914 ft | 454 kts | 199° |
| 2026-04-30 09:52 | 44.77285 | 8.10378 | 25238 ft | 455 kts | 199° |
| 2026-04-30 09:52 | 44.74250 | 8.09080 | 25573 ft | 457 kts | 200° |
| 2026-04-30 09:52 | 44.71202 | 8.07778 | 25918 ft | 459 kts | 200° |
| 2026-04-30 09:53 | 44.68180 | 8.06490 | 26288 ft | 460 kts | 200° |
| 2026-04-30 09:53 | 44.65117 | 8.05184 | 26656 ft | 462 kts | 200° |
| 2026-04-30 09:53 | 44.62037 | 8.03872 | 27039 ft | 464 kts | 200° |
| 2026-04-30 09:53 | 44.58939 | 8.02555 | 27413 ft | 466 kts | 200° |
| 2026-04-30 09:54 | 44.55827 | 8.01232 | 27819 ft | 468 kts | 201° |
| 2026-04-30 09:54 | 44.52701 | 7.99906 | 28220 ft | 470 kts | 201° |
| 2026-04-30 09:54 | 44.49564 | 7.98576 | 28630 ft | 472 kts | 201° |
| 2026-04-30 09:54 | 44.46405 | 7.97239 | 29120 ft | 475 kts | 201° |
| 2026-04-30 09:55 | 44.43235 | 7.95897 | 29702 ft | 478 kts | 200° |
| 2026-04-30 09:55 | 44.41077 | 7.94985 | 30075 ft | 480 kts | 200° |
| 2026-04-30 09:55 | 44.37867 | 7.93631 | 30575 ft | 483 kts | 201° |
| 2026-04-30 09:55 | 44.34641 | 7.92269 | 30984 ft | 486 kts | 200° |
| 2026-04-30 09:56 | 44.31437 | 7.90919 | 31432 ft | 488 kts | 200° |
| 2026-04-30 09:56 | 44.28175 | 7.89553 | 31804 ft | 491 kts | 200° |
| 2026-04-30 09:56 | 44.24897 | 7.88176 | 32143 ft | 494 kts | 200° |
| 2026-04-30 09:56 | 44.21602 | 7.86796 | 32597 ft | 494 kts | 200° |
| 2026-04-30 09:57 | 44.18323 | 7.85424 | 33148 ft | 492 kts | 200° |
| 2026-04-30 09:57 | 44.15050 | 7.84059 | 33663 ft | 490 kts | 200° |
| 2026-04-30 09:57 | 44.11789 | 7.82698 | 34199 ft | 488 kts | 201° |
| 2026-04-30 09:57 | 44.08543 | 7.81343 | 34650 ft | 487 kts | 201° |
| 2026-04-30 09:58 | 44.05307 | 7.79992 | 35068 ft | 486 kts | 201° |
| 2026-04-30 09:58 | 44.02070 | 7.78641 | 35422 ft | 485 kts | 201° |
| 2026-04-30 09:58 | 43.98839 | 7.77295 | 35856 ft | 484 kts | 201° |
| 2026-04-30 09:58 | 43.95621 | 7.75955 | 36225 ft | 483 kts | 201° |
| 2026-04-30 09:59 | 43.89196 | 7.73285 | 36944 ft | 481 kts | 201° |
| 2026-04-30 09:59 | 43.82784 | 7.70630 | 37537 ft | 482 kts | 201° |
| 2026-04-30 10:00 | 43.76380 | 7.67986 | 38228 ft | 479 kts | 201° |
| 2026-04-30 10:00 | 43.73182 | 7.66669 | 38523 ft | 479 kts | 201° |
| 2026-04-30 10:01 | 43.66800 | 7.64040 | 39034 ft | 478 kts | 201° |
| 2026-04-30 10:01 | 43.63613 | 7.62728 | 39246 ft | 478 kts | 201° |
| 2026-04-30 10:01 | 43.60420 | 7.61417 | 39435 ft | 479 kts | 201° |
| 2026-04-30 10:02 | 43.54040 | 7.58805 | 39877 ft | 477 kts | 200° |
| 2026-04-30 10:02 | 43.50860 | 7.57505 | 40111 ft | 476 kts | 200° |
| 2026-04-30 10:02 | 43.47691 | 7.56211 | 40297 ft | 476 kts | 200° |
| 2026-04-30 10:02 | 43.44513 | 7.54913 | 40423 ft | 477 kts | 200° |
| 2026-04-30 10:03 | 43.41334 | 7.53615 | 40578 ft | 477 kts | 200° |
| 2026-04-30 10:03 | 43.38147 | 7.52317 | 40717 ft | 478 kts | 200° |
| 2026-04-30 10:03 | 43.34959 | 7.51020 | 40862 ft | 478 kts | 200° |
| 2026-04-30 10:03 | 43.31765 | 7.49720 | 40986 ft | 479 kts | 200° |
| 2026-04-30 10:04 | 43.28567 | 7.48421 | 41120 ft | 480 kts | 200° |
| 2026-04-30 10:04 | 43.22159 | 7.45823 | 41149 ft | 480 kts | 200° |
| 2026-04-30 10:05 | 43.15755 | 7.43234 | 41144 ft | 480 kts | 200° |
| 2026-04-30 10:05 | 43.09342 | 7.40645 | 41140 ft | 480 kts | 200° |
| 2026-04-30 10:06 | 43.02927 | 7.38061 | 41134 ft | 481 kts | 200° |
| 2026-04-30 10:06 | 42.96514 | 7.35484 | 41132 ft | 481 kts | 200° |
| 2026-04-30 10:07 | 42.90091 | 7.32908 | 41130 ft | 481 kts | 200° |
| 2026-04-30 10:07 | 42.83673 | 7.30340 | 41124 ft | 481 kts | 200° |
| 2026-04-30 10:08 | 42.77252 | 7.27776 | 41117 ft | 481 kts | 200° |
| 2026-04-30 10:08 | 42.70837 | 7.25221 | 41121 ft | 481 kts | 200° |
| 2026-04-30 10:09 | 42.64413 | 7.22667 | 41124 ft | 481 kts | 200° |
| 2026-04-30 10:09 | 42.57996 | 7.20121 | 41116 ft | 481 kts | 200° |
| 2026-04-30 10:10 | 42.51617 | 7.17596 | 41119 ft | 481 kts | 200° |
| 2026-04-30 10:10 | 42.45196 | 7.15059 | 41116 ft | 481 kts | 200° |
| 2026-04-30 10:11 | 42.38734 | 7.12512 | 41107 ft | 481 kts | 201° |
| 2026-04-30 10:11 | 42.32353 | 7.10004 | 41119 ft | 480 kts | 201° |
| 2026-04-30 10:12 | 42.25940 | 7.07486 | 41113 ft | 480 kts | 201° |
| 2026-04-30 10:12 | 42.19515 | 7.04969 | 41113 ft | 480 kts | 201° |
| 2026-04-30 10:13 | 42.13104 | 7.02464 | 41105 ft | 480 kts | 201° |
| 2026-04-30 10:13 | 42.06683 | 6.99946 | 41100 ft | 479 kts | 202° |
| 2026-04-30 10:14 | 42.00788 | 6.96114 | 41122 ft | 466 kts | 220° |
| 2026-04-30 10:14 | 41.93477 | 6.87667 | 41106 ft | 460 kts | 227° |
| 2026-04-30 10:15 | 41.88784 | 6.81825 | 41101 ft | 459 kts | 227° |
| 2026-04-30 10:15 | 41.84097 | 6.76038 | 41106 ft | 457 kts | 227° |
| 2026-04-30 10:16 | 41.79401 | 6.70297 | 41103 ft | 457 kts | 226° |
| 2026-04-30 10:17 | 41.72345 | 6.61725 | 41098 ft | 456 kts | 227° |
| 2026-04-30 10:17 | 41.65304 | 6.53193 | 41099 ft | 455 kts | 227° |
| 2026-04-30 10:18 | 41.60597 | 6.47502 | 40975 ft | 457 kts | 227° |
| 2026-04-30 10:18 | 41.58252 | 6.44672 | 40721 ft | 455 kts | 227° |
| 2026-04-30 10:19 | 41.53593 | 6.39061 | 40222 ft | 452 kts | 227° |
| 2026-04-30 10:19 | 41.51259 | 6.36253 | 39990 ft | 451 kts | 227° |
| 2026-04-30 10:19 | 41.48931 | 6.33455 | 39746 ft | 450 kts | 227° |
| 2026-04-30 10:19 | 41.46603 | 6.30660 | 39519 ft | 449 kts | 227° |
| 2026-04-30 10:20 | 41.44279 | 6.27872 | 39285 ft | 448 kts | 227° |
| 2026-04-30 10:20 | 41.39653 | 6.22330 | 38840 ft | 446 kts | 227° |
| 2026-04-30 10:20 | 41.37462 | 6.19454 | 38785 ft | 442 kts | 233° |
| 2026-04-30 10:21 | 41.35412 | 6.16419 | 38502 ft | 440 kts | 234° |
| 2026-04-30 10:21 | 41.33421 | 6.13343 | 38224 ft | 439 kts | 235° |
| 2026-04-30 10:21 | 41.31450 | 6.10233 | 37942 ft | 439 kts | 235° |
| 2026-04-30 10:21 | 41.29487 | 6.07114 | 37661 ft | 439 kts | 235° |
| 2026-04-30 10:22 | 41.27544 | 6.04033 | 37225 ft | 432 kts | 234° |
| 2026-04-30 10:22 | 41.25617 | 6.00992 | 36672 ft | 427 kts | 234° |
| 2026-04-30 10:22 | 41.23708 | 5.97989 | 36115 ft | 424 kts | 234° |
| 2026-04-30 10:22 | 41.21811 | 5.95013 | 35529 ft | 421 kts | 234° |
| 2026-04-30 10:23 | 41.19923 | 5.92056 | 34943 ft | 418 kts | 234° |
| 2026-04-30 10:23 | 41.18044 | 5.89116 | 34335 ft | 418 kts | 234° |
| 2026-04-30 10:23 | 41.16157 | 5.86164 | 33622 ft | 421 kts | 234° |
| 2026-04-30 10:23 | 41.14257 | 5.83192 | 32927 ft | 425 kts | 233° |
| 2026-04-30 10:24 | 41.12335 | 5.80190 | 32235 ft | 429 kts | 233° |
| 2026-04-30 10:24 | 41.10389 | 5.77156 | 31518 ft | 433 kts | 233° |
| 2026-04-30 10:24 | 41.08427 | 5.74102 | 30796 ft | 437 kts | 233° |
| 2026-04-30 10:24 | 41.06444 | 5.71020 | 30027 ft | 442 kts | 233° |
| 2026-04-30 10:25 | 41.04447 | 5.67920 | 29240 ft | 442 kts | 232° |
| 2026-04-30 10:25 | 41.02455 | 5.64834 | 28616 ft | 439 kts | 232° |
| 2026-04-30 10:25 | 41.00477 | 5.61776 | 28051 ft | 435 kts | 232° |
| 2026-04-30 10:25 | 40.98519 | 5.58750 | 27468 ft | 431 kts | 232° |
| 2026-04-30 10:26 | 40.96576 | 5.55747 | 26918 ft | 428 kts | 232° |
| 2026-04-30 10:26 | 40.94646 | 5.52766 | 26367 ft | 425 kts | 232° |
| 2026-04-30 10:26 | 40.92728 | 5.49806 | 25791 ft | 422 kts | 232° |
| 2026-04-30 10:26 | 40.90823 | 5.46868 | 25247 ft | 419 kts | 232° |
| 2026-04-30 10:27 | 40.88932 | 5.43953 | 24700 ft | 416 kts | 232° |
| 2026-04-30 10:27 | 40.87052 | 5.41059 | 24149 ft | 413 kts | 232° |
| 2026-04-30 10:27 | 40.85183 | 5.38186 | 23603 ft | 411 kts | 232° |
| 2026-04-30 10:27 | 40.83328 | 5.35334 | 23000 ft | 408 kts | 232° |
| 2026-04-30 10:28 | 40.81486 | 5.32505 | 22457 ft | 405 kts | 231° |
| 2026-04-30 10:28 | 40.79652 | 5.29691 | 21910 ft | 402 kts | 231° |
| 2026-04-30 10:28 | 40.77833 | 5.26905 | 21364 ft | 400 kts | 231° |
| 2026-04-30 10:28 | 40.76024 | 5.24136 | 20830 ft | 398 kts | 231° |
| 2026-04-30 10:29 | 40.74222 | 5.21381 | 20295 ft | 396 kts | 231° |
| 2026-04-30 10:29 | 40.72426 | 5.18637 | 19754 ft | 393 kts | 231° |
| 2026-04-30 10:29 | 40.70667 | 5.15951 | 19214 ft | 391 kts | 230° |
| 2026-04-30 10:29 | 40.68892 | 5.13245 | 18668 ft | 389 kts | 230° |
| 2026-04-30 10:30 | 40.67127 | 5.10554 | 18073 ft | 387 kts | 230° |
| 2026-04-30 10:30 | 40.65372 | 5.07884 | 17494 ft | 384 kts | 230° |
| 2026-04-30 10:30 | 40.63633 | 5.05240 | 16951 ft | 380 kts | 230° |
| 2026-04-30 10:30 | 40.61910 | 5.02623 | 16394 ft | 376 kts | 230° |
| 2026-04-30 10:31 | 40.60204 | 5.00034 | 15841 ft | 373 kts | 230° |
| 2026-04-30 10:31 | 40.58515 | 4.97472 | 15288 ft | 369 kts | 230° |
| 2026-04-30 10:31 | 40.56840 | 4.94932 | 14731 ft | 366 kts | 230° |
| 2026-04-30 10:31 | 40.55180 | 4.92419 | 14200 ft | 362 kts | 230° |
| 2026-04-30 10:32 | 40.53537 | 4.89931 | 13612 ft | 358 kts | 230° |
| 2026-04-30 10:32 | 40.51914 | 4.87476 | 13050 ft | 355 kts | 230° |
| 2026-04-30 10:32 | 40.50299 | 4.85037 | 12506 ft | 353 kts | 230° |
| 2026-04-30 10:32 | 40.48693 | 4.82610 | 11959 ft | 351 kts | 230° |
| 2026-04-30 10:33 | 40.47092 | 4.80194 | 11452 ft | 348 kts | 229° |
| 2026-04-30 10:33 | 40.45542 | 4.77859 | 11314 ft | 330 kts | 229° |
| 2026-04-30 10:33 | 40.44016 | 4.75705 | 11207 ft | 317 kts | 224° |
| 2026-04-30 10:33 | 40.42337 | 4.73635 | 11130 ft | 343 kts | 223° |
| 2026-04-30 10:34 | 40.40554 | 4.71490 | 11061 ft | 351 kts | 223° |
| 2026-04-30 10:34 | 40.38745 | 4.69336 | 10865 ft | 351 kts | 223° |
| 2026-04-30 10:34 | 40.36932 | 4.67190 | 10662 ft | 351 kts | 223° |
| 2026-04-30 10:34 | 40.35121 | 4.65049 | 10462 ft | 350 kts | 223° |
| 2026-04-30 10:35 | 40.33315 | 4.62917 | 9997 ft | 349 kts | 223° |
| 2026-04-30 10:35 | 40.31519 | 4.60799 | 9461 ft | 347 kts | 223° |
| 2026-04-30 10:35 | 40.29727 | 4.58687 | 9014 ft | 346 kts | 222° |
| 2026-04-30 10:35 | 40.27944 | 4.56588 | 8577 ft | 344 kts | 222° |
| 2026-04-30 10:36 | 40.26166 | 4.54498 | 8138 ft | 342 kts | 222° |
| 2026-04-30 10:36 | 40.24399 | 4.52421 | 7688 ft | 341 kts | 221° |
| 2026-04-30 10:36 | 40.22638 | 4.50354 | 7272 ft | 339 kts | 221° |
| 2026-04-30 10:36 | 40.20888 | 4.48300 | 6841 ft | 338 kts | 221° |
| 2026-04-30 10:37 | 40.19142 | 4.46253 | 6402 ft | 336 kts | 220° |
| 2026-04-30 10:37 | 40.17402 | 4.44216 | 5956 ft | 335 kts | 220° |
| 2026-04-30 10:37 | 40.15662 | 4.42183 | 5528 ft | 335 kts | 220° |
| 2026-04-30 10:37 | 40.13928 | 4.40154 | 5089 ft | 334 kts | 220° |
| 2026-04-30 10:38 | 40.12194 | 4.38129 | 4641 ft | 334 kts | 220° |
| 2026-04-30 10:38 | 40.10461 | 4.36104 | 4209 ft | 333 kts | 220° |
| 2026-04-30 10:38 | 40.08740 | 4.34094 | 3779 ft | 332 kts | 220° |
| 2026-04-30 10:38 | 40.07022 | 4.32092 | 3427 ft | 330 kts | 220° |
| 2026-04-30 10:39 | 40.05313 | 4.30098 | 3311 ft | 324 kts | 220° |
| 2026-04-30 10:39 | 40.03685 | 4.28199 | 3183 ft | 304 kts | 220° |
| 2026-04-30 10:39 | 40.02157 | 4.26417 | 3043 ft | 286 kts | 219° |
| 2026-04-30 10:39 | 40.00615 | 4.24926 | 2896 ft | 266 kts | 201° |
| 2026-04-30 10:40 | 39.98893 | 4.24346 | 2802 ft | 248 kts | 186° |
| 2026-04-30 10:40 | 39.97792 | 4.24152 | 2691 ft | 234 kts | 183° |
| 2026-04-30 10:40 | 39.96236 | 4.23929 | 2540 ft | 216 kts | 186° |
| 2026-04-30 10:40 | 39.94817 | 4.23612 | 2464 ft | 198 kts | 187° |
| 2026-04-30 10:41 | 39.93525 | 4.23351 | 2406 ft | 178 kts | 186° |
| 2026-04-30 10:41 | 39.92361 | 4.23111 | 2135 ft | 167 kts | 187° |
| 2026-04-30 10:41 | 39.91207 | 4.22861 | 1700 ft | 170 kts | 186° |
| 2026-04-30 10:41 | 39.90030 | 4.22622 | 1271 ft | 170 kts | 186° |
| 2026-04-30 10:42 | 39.88866 | 4.22371 | 870 ft | 168 kts | 186° |
| 2026-04-30 10:42 | 39.87710 | 4.22160 | 482 ft | 167 kts | 187° |
| 2026-04-30 10:42 | 39.86588 | 4.21921 | 315 ft | 156 kts | 186° |
| 2026-04-30 10:42 | 39.85591 | 4.21726 | 314 ft | 141 kts | 187° |
| 2026-04-30 10:43 | 39.84505 | 4.21476 | 993 ft | 174 kts | 187° |
| 2026-04-30 10:43 | 39.83196 | 4.21204 | 1840 ft | 207 kts | 187° |
| 2026-04-30 10:43 | 39.81684 | 4.20896 | 1965 ft | 231 kts | 187° |
| 2026-04-30 10:43 | 39.80017 | 4.20551 | 1971 ft | 250 kts | 187° |
| 2026-04-30 10:44 | 39.78338 | 4.19855 | 1990 ft | 257 kts | 202° |
| 2026-04-30 10:44 | 39.76802 | 4.18666 | 1990 ft | 259 kts | 218° |
| 2026-04-30 10:44 | 39.75706 | 4.16815 | 1991 ft | 262 kts | 246° |
| 2026-04-30 10:44 | 39.75485 | 4.14496 | 2008 ft | 262 kts | 280° |
| 2026-04-30 10:45 | 39.76279 | 4.12362 | 2153 ft | 273 kts | 312° |
| 2026-04-30 10:45 | 39.77918 | 4.10991 | 2392 ft | 295 kts | 344° |
| 2026-04-30 10:45 | 39.80008 | 4.10855 | 2753 ft | 310 kts | 9° |
| 2026-04-30 10:45 | 39.82178 | 4.11271 | 2947 ft | 319 kts | 7° |
| 2026-04-30 10:46 | 39.84398 | 4.11438 | 2993 ft | 320 kts | 2° |
| 2026-04-30 10:46 | 39.86628 | 4.11505 | 2994 ft | 321 kts | 2° |
| 2026-04-30 10:46 | 39.88862 | 4.11564 | 2995 ft | 321 kts | 2° |
| 2026-04-30 10:46 | 39.91091 | 4.11622 | 2991 ft | 321 kts | 2° |
| 2026-04-30 10:47 | 39.93324 | 4.11679 | 2988 ft | 321 kts | 2° |
| 2026-04-30 10:47 | 39.95549 | 4.11835 | 2977 ft | 319 kts | 9° |
| 2026-04-30 10:47 | 39.97643 | 4.12539 | 2795 ft | 303 kts | 20° |
| 2026-04-30 10:47 | 39.99576 | 4.13453 | 2608 ft | 287 kts | 22° |
| 2026-04-30 10:48 | 40.01397 | 4.14343 | 2383 ft | 273 kts | 22° |
| 2026-04-30 10:48 | 40.03085 | 4.15337 | 2212 ft | 259 kts | 32° |
| 2026-04-30 10:48 | 40.04434 | 4.16780 | 2077 ft | 244 kts | 51° |
| 2026-04-30 10:48 | 40.05147 | 4.18654 | 2004 ft | 222 kts | 85° |
| 2026-04-30 10:49 | 40.04876 | 4.20494 | 1998 ft | 201 kts | 124° |
| 2026-04-30 10:49 | 40.03945 | 4.21766 | 2001 ft | 197 kts | 140° |
| 2026-04-30 10:49 | 40.02868 | 4.22866 | 2015 ft | 196 kts | 142° |
| 2026-04-30 10:49 | 40.01772 | 4.23930 | 2001 ft | 197 kts | 143° |
| 2026-04-30 10:50 | 40.00490 | 4.24564 | 1993 ft | 200 kts | 169° |
| 2026-04-30 10:50 | 39.99102 | 4.24618 | 1990 ft | 202 kts | 187° |
| 2026-04-30 10:50 | 39.97734 | 4.24206 | 1994 ft | 202 kts | 191° |
| 2026-04-30 10:50 | 39.96350 | 4.23923 | 1991 ft | 201 kts | 182° |
| 2026-04-30 10:51 | 39.94971 | 4.23682 | 1890 ft | 196 kts | 187° |
| 2026-04-30 10:51 | 39.93685 | 4.23392 | 1646 ft | 180 kts | 187° |
| 2026-04-30 10:51 | 39.92499 | 4.23149 | 1388 ft | 165 kts | 186° |
| 2026-04-30 10:51 | 39.91405 | 4.22925 | 1172 ft | 156 kts | 186° |
| 2026-04-30 10:52 | 39.90373 | 4.22697 | 1044 ft | 145 kts | 187° |
| 2026-04-30 10:52 | 39.89409 | 4.22465 | 806 ft | 137 kts | 186° |
| 2026-04-30 10:52 | 39.88472 | 4.22315 | 628 ft | 137 kts | 187° |
| 2026-04-30 10:52 | 39.87524 | 4.22123 | 409 ft | 138 kts | 192° |
| 2026-04-30 10:53 | 39.86584 | 4.21923 | 309 ft | 131 kts | 189° |
| 2026-04-30 10:53 | 39.85846 | 4.21784 | 308 ft | 70 kts | 189° |
| 2026-04-30 10:53 | 39.85525 | 4.21788 | 304 ft | 42 kts | 161° |
| 2026-04-30 10:53 | 39.85413 | 4.21890 | 301 ft | 13 kts | 82° |
| 2026-04-30 10:54 | 39.85484 | 4.21946 | 302 ft | 14 kts | 11° |
| 2026-04-30 10:54 | 39.85586 | 4.21967 | 300 ft | 16 kts | 9° |
| 2026-04-30 10:54 | 39.85701 | 4.21991 | 307 ft | 18 kts | 9° |
| 2026-04-30 10:54 | 39.85832 | 4.22018 | 305 ft | 21 kts | 8° |
| 2026-04-30 10:55 | 39.85987 | 4.22049 | 305 ft | 24 kts | 8° |
| 2026-04-30 10:55 | 39.86160 | 4.22095 | 306 ft | 25 kts | 34° |
| 2026-04-30 10:55 | 39.86207 | 4.22295 | 306 ft | 22 kts | 100° |
| 2026-04-30 10:55 | 39.86200 | 4.22354 | 303 ft | 2 kts | 97° |
| 2026-04-30 10:56 | 39.86199 | 4.22361 | 304 ft | 0 kts | 97° |